createdAt,value
2019-02-07T00:01:07.922Z,27.15
2019-02-07T00:03:36.912Z,24.25
2019-02-07T00:06:06.096Z,24.77
2019-02-07T00:08:35.138Z,28.12
2019-02-07T00:11:04.347Z,26.52
2019-02-07T00:13:33.294Z,30.75
2019-02-07T00:16:02.200Z,28.77
2019-02-07T00:18:31.434Z,25.05
2019-02-07T00:21:00.785Z,24.43
2019-02-07T00:23:29.769Z,29.40
2019-02-07T00:25:58.728Z,27.22
2019-02-07T00:28:28.181Z,27.27
2019-02-07T00:30:57.392Z,26.85
2019-02-07T00:33:26.419Z,28.05
2019-02-07T00:35:55.933Z,27.87
2019-02-07T00:38:24.860Z,27.82
2019-02-07T00:40:53.698Z,25.65
2019-02-07T00:43:22.610Z,28.50
2019-02-07T00:45:51.470Z,30.32
2019-02-07T00:48:20.665Z,25.62
2019-02-07T00:50:50.232Z,25.80
2019-02-07T00:53:19.192Z,29.98
2019-02-07T00:55:48.520Z,28.73
2019-02-07T00:58:17.795Z,32.23
2019-02-07T01:00:46.760Z,29.12
2019-02-07T01:03:15.782Z,30.43
2019-02-07T01:05:45.357Z,28.57
2019-02-07T01:08:14.613Z,27.70
2019-02-07T01:10:43.806Z,28.75
2019-02-07T01:13:12.912Z,28.12
2019-02-07T01:15:41.911Z,30.10
2019-02-07T01:18:10.832Z,32.28
2019-02-07T01:20:40.279Z,28.95
2019-02-07T01:23:09.096Z,32.55
2019-02-07T01:25:38.014Z,30.62
2019-02-07T01:28:07.111Z,33.15
2019-02-07T01:30:36.564Z,27.45
2019-02-07T01:33:05.695Z,30.32
2019-02-07T01:35:35.136Z,32.15
2019-02-07T01:38:04.220Z,30.97
2019-02-07T01:40:33.134Z,34.30
2019-02-07T01:43:02.126Z,32.50
2019-02-07T01:45:31.250Z,29.10
2019-02-07T01:48:00.257Z,31.12
2019-02-07T01:50:29.702Z,34.33
2019-02-07T01:52:58.647Z,28.02
2019-02-07T01:55:27.738Z,30.80
2019-02-07T01:57:56.835Z,31.12
2019-02-07T02:00:26.087Z,27.60
2019-02-07T02:02:55.029Z,27.42
2019-02-07T02:05:24.132Z,31.30
2019-02-07T02:07:53.115Z,29.20
2019-02-07T02:10:23.906Z,30.88
2019-02-07T02:12:53.195Z,32.95
2019-02-07T02:15:24.896Z,31.52
2019-02-07T02:17:54.080Z,31.10
2019-02-07T02:20:23.923Z,28.30
2019-02-07T02:22:54.142Z,32.93
2019-02-07T02:25:23.550Z,29.57
2019-02-07T02:27:52.815Z,30.52
2019-02-07T02:30:27.428Z,28.83
2019-02-07T02:32:56.305Z,31.87
2019-02-07T02:35:25.604Z,30.32
2019-02-07T02:37:54.525Z,30.30
2019-02-07T02:40:23.558Z,32.85
2019-02-07T02:42:52.659Z,26.48
2019-02-07T02:45:21.983Z,33.42
2019-02-07T02:47:51.416Z,28.90
2019-02-07T02:50:23.074Z,27.85
2019-02-07T02:52:52.181Z,30.08
2019-02-07T02:55:29.580Z,31.37
2019-02-07T02:57:58.554Z,29.67
2019-02-07T03:00:39.506Z,29.32
2019-02-07T03:03:26.204Z,27.58
2019-02-07T03:06:05.721Z,29.85
2019-02-07T03:08:52.622Z,25.90
2019-02-07T03:11:43.517Z,30.02
2019-02-07T03:14:29.898Z,30.48
2019-02-07T03:17:08.973Z,30.65
2019-02-07T03:19:55.756Z,29.40
2019-02-07T03:22:42.736Z,32.45
2019-02-07T03:25:33.947Z,32.00
2019-02-07T03:28:20.697Z,29.75
2019-02-07T03:31:08.699Z,26.65
2019-02-07T03:33:50.381Z,27.58
2019-02-07T03:36:25.563Z,29.75
2019-02-07T03:39:14.893Z,29.35
2019-02-07T03:42:01.622Z,28.60
2019-02-07T03:44:42.260Z,28.52
2019-02-07T03:47:21.414Z,31.17
2019-02-07T03:50:12.452Z,27.45
2019-02-07T03:52:58.680Z,27.30
2019-02-07T03:55:35.334Z,28.02
2019-02-07T03:58:19.790Z,28.92
2019-02-07T04:01:07.985Z,32.40
2019-02-07T04:03:50.612Z,26.75
2019-02-07T04:06:27.907Z,29.52
2019-02-07T04:09:23.365Z,29.50
2019-02-07T04:12:26.342Z,26.68
2019-02-07T04:15:12.858Z,27.58
2019-02-07T04:18:03.694Z,29.20
2019-02-07T04:20:50.425Z,30.82
2019-02-07T04:23:36.863Z,30.97
2019-02-07T04:26:27.801Z,24.15
2019-02-07T04:29:15.176Z,29.42
2019-02-07T04:32:02.587Z,23.87
2019-02-07T04:34:49.231Z,31.82
2019-02-07T04:37:33.253Z,29.90
2019-02-07T04:40:20.360Z,27.60
2019-02-07T04:43:24.477Z,30.75
2019-02-07T04:46:11.063Z,29.87
2019-02-07T04:49:04.847Z,29.02
2019-02-07T04:51:45.666Z,38.30
2019-02-07T04:54:30.041Z,27.60
2019-02-07T04:57:22.147Z,30.92
2019-02-07T05:00:09.873Z,28.47
2019-02-07T05:02:52.710Z,27.90
2019-02-07T05:05:55.569Z,30.40
2019-02-07T05:08:43.692Z,27.87
2019-02-07T05:11:38.541Z,29.67
2019-02-07T05:14:25.202Z,31.35
2019-02-07T05:17:19.080Z,31.12
2019-02-07T05:20:05.627Z,29.37
2019-02-07T05:22:47.959Z,26.97
2019-02-07T05:25:42.092Z,28.42
2019-02-07T05:28:28.855Z,28.25
2019-02-07T05:31:06.627Z,32.17
2019-02-07T05:34:06.570Z,29.40
2019-02-07T05:36:53.426Z,34.50
2019-02-07T05:39:40.415Z,33.02
2019-02-07T05:42:43.244Z,28.45
2019-02-07T05:45:34.459Z,30.40
2019-02-07T05:48:23.179Z,28.25
2019-02-07T05:51:09.558Z,28.00
2019-02-07T05:53:50.704Z,27.85
2019-02-07T05:56:41.836Z,28.75
2019-02-07T05:59:27.435Z,23.95
2019-02-07T06:02:11.225Z,28.17
2019-02-07T06:04:54.294Z,32.63
2019-02-07T06:07:40.967Z,31.77
2019-02-07T06:10:44.710Z,40.23
2019-02-07T06:13:35.607Z,35.05
2019-02-07T06:16:16.339Z,30.50
2019-02-07T06:19:05.518Z,29.30
2019-02-07T06:21:48.255Z,25.40
2019-02-07T06:24:43.737Z,22.13
2019-02-07T06:27:46.951Z,26.25
2019-02-07T06:30:41.408Z,23.70
2019-02-07T06:33:41.611Z,23.47
2019-02-07T06:36:32.422Z,25.40
2019-02-07T06:39:29.671Z,23.98
2019-02-07T06:42:13.581Z,27.02
2019-02-07T06:44:53.528Z,19.25
2019-02-07T06:47:35.479Z,23.92
2019-02-07T06:50:36.068Z,22.98
2019-02-07T06:53:19.001Z,23.50
2019-02-07T06:56:05.385Z,20.77
2019-02-07T06:59:02.423Z,23.87
2019-02-07T07:01:48.739Z,25.00
2019-02-07T07:04:30.550Z,20.10
2019-02-07T07:07:21.912Z,25.27
2019-02-07T07:10:08.404Z,23.45
2019-02-07T07:12:59.666Z,20.45
2019-02-07T07:15:40.321Z,24.32
2019-02-07T07:18:27.232Z,19.67
2019-02-07T07:21:13.939Z,20.10
2019-02-07T07:24:00.707Z,21.48
2019-02-07T07:26:43.583Z,20.85
2019-02-07T07:29:25.654Z,24.70
2019-02-07T07:32:19.462Z,20.00
2019-02-07T07:35:12.070Z,22.62
2019-02-07T07:38:08.835Z,18.07
2019-02-07T07:40:55.639Z,18.25
2019-02-07T07:43:38.933Z,15.00
2019-02-07T07:46:45.160Z,19.90
2019-02-07T07:49:30.111Z,21.05
2019-02-07T07:52:21.439Z,20.55
2019-02-07T07:55:12.153Z,22.67
2019-02-07T07:57:56.711Z,20.27
2019-02-07T08:00:53.815Z,18.55
2019-02-07T08:03:33.548Z,17.90
2019-02-07T08:06:12.554Z,16.65
2019-02-07T08:08:59.167Z,18.17
2019-02-07T08:11:38.323Z,17.90
2019-02-07T08:14:26.409Z,19.40
2019-02-07T08:17:21.288Z,19.20
2019-02-07T08:20:07.785Z,14.33
2019-02-07T08:22:54.168Z,14.58
2019-02-07T08:25:35.270Z,16.25
2019-02-07T08:28:13.727Z,18.00
2019-02-07T08:30:54.847Z,17.20
2019-02-07T08:33:49.072Z,15.38
2019-02-07T08:36:49.038Z,15.18
2019-02-07T08:39:33.220Z,19.52
2019-02-07T08:42:21.452Z,18.60
2019-02-07T08:45:18.890Z,18.10
2019-02-07T08:48:03.870Z,15.83
2019-02-07T08:50:51.587Z,14.35
2019-02-07T08:53:42.448Z,15.60
2019-02-07T08:56:27.589Z,16.80
2019-02-07T08:59:07.744Z,18.48
2019-02-07T09:01:54.627Z,18.37
2019-02-07T09:04:37.475Z,18.57
2019-02-07T09:07:20.456Z,17.37
2019-02-07T09:10:01.180Z,13.72
2019-02-07T09:12:47.827Z,15.40
2019-02-07T09:15:26.716Z,16.60
2019-02-07T09:18:14.670Z,16.15
2019-02-07T09:21:08.465Z,15.70
2019-02-07T09:23:52.651Z,15.80
2019-02-07T09:26:38.833Z,14.75
2019-02-07T09:29:33.866Z,18.52
2019-02-07T09:32:33.251Z,15.93
2019-02-07T09:35:15.711Z,15.72
2019-02-07T09:38:09.871Z,17.65
2019-02-07T09:40:50.900Z,22.65
2019-02-07T09:43:38.048Z,19.70
2019-02-07T09:46:24.700Z,17.50
2019-02-07T09:49:11.398Z,18.52
2019-02-07T09:51:58.202Z,17.37
2019-02-07T09:54:40.775Z,18.27
2019-02-07T09:57:25.656Z,22.02
2019-02-07T10:00:07.770Z,22.05
2019-02-07T10:02:56.995Z,22.90
2019-02-07T10:05:43.741Z,18.42
2019-02-07T10:08:30.880Z,20.15
2019-02-07T10:11:11.982Z,19.62
2019-02-07T10:13:58.319Z,20.48
2019-02-07T10:16:52.294Z,20.20
2019-02-07T10:19:39.128Z,22.25
2019-02-07T10:22:17.785Z,19.27
2019-02-07T10:25:02.314Z,21.02
2019-02-07T10:28:02.511Z,19.95
2019-02-07T10:30:59.640Z,18.00
2019-02-07T10:42:28.578Z,23.12
2019-02-07T10:49:25.196Z,19.92
2019-02-07T10:53:20.384Z,18.32
2019-02-07T10:56:44.750Z,16.57
2019-02-07T11:06:57.668Z,15.93
2019-02-07T11:10:34.286Z,18.90
2019-02-07T11:25:57.251Z,17.05
2019-02-07T12:19:03.271Z,12.75
2019-02-07T13:11:57.922Z,15.50
2019-02-07T13:18:57.364Z,22.67
2019-02-07T13:44:55.035Z,17.25
2019-02-07T13:49:58.485Z,19.20
2019-02-07T13:51:23.647Z,15.85
2019-02-07T13:55:37.315Z,16.60
2019-02-07T13:58:48.498Z,18.05
2019-02-07T14:02:04.563Z,16.57
2019-02-07T14:04:58.693Z,20.85
2019-02-07T14:13:27.878Z,17.23
2019-02-07T14:15:13.462Z,18.57
2019-02-07T14:33:51.593Z,14.75
2019-02-07T14:41:04.470Z,19.65
2019-02-07T15:05:51.761Z,14.87
2019-02-07T15:12:57.853Z,20.77
2019-02-07T15:15:27.434Z,18.25
2019-02-07T15:17:57.490Z,19.20
2019-02-07T15:21:19.753Z,20.08
2019-02-07T15:24:03.723Z,19.07
2019-02-07T15:26:36.944Z,20.37
2019-02-07T15:29:16.000Z,23.20
2019-02-07T15:32:00.894Z,23.85
2019-02-07T15:34:53.788Z,23.70
2019-02-07T15:37:27.007Z,22.73
2019-02-07T15:40:00.631Z,26.65
2019-02-07T15:42:35.239Z,24.30
2019-02-07T15:45:20.007Z,21.23
2019-02-07T15:48:02.159Z,25.85
2019-02-07T15:50:38.271Z,28.12
2019-02-07T15:53:09.501Z,26.12
2019-02-07T15:55:56.833Z,22.55
2019-02-07T15:58:42.738Z,25.50
2019-02-07T16:01:54.338Z,26.97
2019-02-07T16:04:50.619Z,25.72
2019-02-07T16:09:39.678Z,31.48
2019-02-07T16:12:20.934Z,22.52
2019-02-07T16:15:31.734Z,29.98
2019-02-07T16:19:25.791Z,27.67
2019-02-07T16:42:29.530Z,34.40
2019-02-07T16:45:23.053Z,28.25
2019-02-07T16:47:52.035Z,40.03
2019-02-07T16:50:21.342Z,30.02
2019-02-07T16:52:50.211Z,29.90
2019-02-07T16:55:19.087Z,31.70
2019-02-07T16:57:47.951Z,34.67
2019-02-07T17:00:22.434Z,29.98
2019-02-07T17:02:51.775Z,30.90
2019-02-07T17:05:22.479Z,36.95
2019-02-07T17:07:51.844Z,34.15
2019-02-07T17:10:23.338Z,28.90
2019-02-07T17:12:52.620Z,29.52
2019-02-07T17:15:21.636Z,33.75
2019-02-07T17:17:50.691Z,26.80
2019-02-07T17:20:23.635Z,31.15
2019-02-07T17:22:52.732Z,33.15
2019-02-07T17:25:21.987Z,29.02
2019-02-07T17:27:50.831Z,31.15
2019-02-07T17:30:21.592Z,31.23
2019-02-07T17:32:51.348Z,29.65
2019-02-07T17:35:20.675Z,33.08
2019-02-07T17:37:49.864Z,32.15
2019-02-07T17:40:19.842Z,26.55
2019-02-07T17:42:48.744Z,33.20
2019-02-07T17:45:20.334Z,29.77
2019-02-07T17:47:50.306Z,32.95
2019-02-07T17:50:30.187Z,31.15
2019-02-07T17:52:59.346Z,34.20
2019-02-07T17:55:28.415Z,32.63
2019-02-07T17:57:57.294Z,43.15
2019-02-07T18:00:48.811Z,36.63
2019-02-07T18:03:17.676Z,39.38
2019-02-07T18:05:46.742Z,49.27
2019-02-07T18:08:15.752Z,44.35
2019-02-07T18:10:44.932Z,47.25
2019-02-07T18:13:14.029Z,56.10
2019-02-07T18:15:42.946Z,41.68
2019-02-07T18:18:11.877Z,47.95
2019-02-07T18:20:40.838Z,39.53
2019-02-07T18:23:09.808Z,46.75
2019-02-07T18:25:38.858Z,36.90
2019-02-07T18:28:08.039Z,38.65
2019-02-07T18:30:36.949Z,37.60
2019-02-07T18:33:05.831Z,32.17
2019-02-07T18:35:34.736Z,42.08
2019-02-07T18:38:05.959Z,35.05
2019-02-07T18:40:34.930Z,41.18
2019-02-07T18:43:04.166Z,45.95
2019-02-07T18:45:33.029Z,34.00
2019-02-07T18:48:01.914Z,30.97
2019-02-07T18:50:35.059Z,39.10
2019-02-07T18:53:04.238Z,38.90
2019-02-07T18:55:33.596Z,40.55
2019-02-07T18:58:03.400Z,36.30
2019-02-07T19:00:33.103Z,35.10
2019-02-07T19:03:02.222Z,38.98
2019-02-07T19:05:32.209Z,42.55
2019-02-07T19:08:00.976Z,40.05
2019-02-07T19:10:30.093Z,41.90
2019-02-07T19:12:59.536Z,39.78
2019-02-07T19:15:40.369Z,42.23
2019-02-07T19:18:09.251Z,39.67
2019-02-07T19:20:38.151Z,38.50
2019-02-07T19:23:07.218Z,41.02
2019-02-07T19:25:36.854Z,40.55
2019-02-07T19:28:06.918Z,40.25
2019-02-07T19:30:37.085Z,49.80
2019-02-07T19:33:06.222Z,38.02
2019-02-07T19:35:35.023Z,43.55
2019-02-07T19:38:04.047Z,38.60
2019-02-07T19:40:32.998Z,33.67
2019-02-07T19:43:02.219Z,33.40
2019-02-07T19:45:31.608Z,42.93
2019-02-07T19:48:00.841Z,36.28
2019-02-07T19:50:29.832Z,30.30
2019-02-07T19:52:59.651Z,35.98
2019-02-07T19:55:29.256Z,36.40
2019-02-07T19:57:58.707Z,37.05
2019-02-07T20:00:29.834Z,38.02
2019-02-07T20:02:58.999Z,44.10
2019-02-07T20:05:28.044Z,39.55
2019-02-07T20:07:56.934Z,47.67
2019-02-07T20:10:26.747Z,51.98
2019-02-07T20:12:56.276Z,54.42
2019-02-07T20:15:29.973Z,51.50
2019-02-07T20:17:59.938Z,44.70
2019-02-07T20:20:29.742Z,59.20
2019-02-07T20:22:58.873Z,47.27
2019-02-07T20:25:27.883Z,45.38
2019-02-07T20:27:57.668Z,42.40
2019-02-07T20:30:28.796Z,46.68
2019-02-07T20:32:58.140Z,36.25
2019-02-07T20:35:27.975Z,51.88
2019-02-07T20:37:56.996Z,45.10
2019-02-07T20:40:26.474Z,41.00
2019-02-07T20:42:55.294Z,50.43
2019-02-07T20:45:26.251Z,52.53
2019-02-07T20:47:55.715Z,52.38
2019-02-07T20:50:25.701Z,45.70
2019-02-07T20:52:55.134Z,43.90
2019-02-07T20:55:24.182Z,45.15
2019-02-07T20:57:53.930Z,54.77
2019-02-07T21:00:25.788Z,45.05
2019-02-07T21:02:56.095Z,49.03
2019-02-07T21:05:28.092Z,43.10
2019-02-07T21:07:57.346Z,49.63
2019-02-07T21:10:27.248Z,47.05
2019-02-07T21:12:56.549Z,49.63
2019-02-07T21:15:26.078Z,43.63
2019-02-07T21:17:55.339Z,41.88
2019-02-07T21:20:26.291Z,46.70
2019-02-07T21:23:01.362Z,48.75
2019-02-07T21:25:39.267Z,44.48
2019-02-07T21:28:08.779Z,50.25
2019-02-07T21:30:37.988Z,57.70
2019-02-07T21:33:07.131Z,49.98
2019-02-07T21:35:36.173Z,50.03
2019-02-07T21:38:07.798Z,48.35
2019-02-07T21:40:36.628Z,45.43
2019-02-07T21:43:05.831Z,48.70
2019-02-07T21:45:35.055Z,41.08
2019-02-07T21:48:05.221Z,48.50
2019-02-07T21:50:34.304Z,49.98
2019-02-07T21:53:04.181Z,49.30
2019-02-07T21:55:33.033Z,45.90
2019-02-07T21:58:01.883Z,42.25
2019-02-07T22:00:33.539Z,40.58
2019-02-07T22:03:02.499Z,53.73
2019-02-07T22:05:31.441Z,50.23
2019-02-07T22:08:00.361Z,45.85
2019-02-07T22:10:29.359Z,49.45
2019-02-07T22:12:58.579Z,45.23
2019-02-07T22:15:28.446Z,53.60
2019-02-07T22:17:57.338Z,45.05
2019-02-07T22:20:26.727Z,44.38
2019-02-07T22:22:56.019Z,50.50
2019-02-07T22:25:25.779Z,43.50
2019-02-07T22:27:55.025Z,39.03
2019-02-07T22:30:29.683Z,45.95
2019-02-07T22:32:59.344Z,44.10
2019-02-07T22:35:28.973Z,46.40
2019-02-07T22:37:58.304Z,41.48
2019-02-07T22:40:27.567Z,43.35
2019-02-07T22:42:56.747Z,44.93
2019-02-07T22:45:26.233Z,38.40
2019-02-07T22:47:55.623Z,40.88
2019-02-07T22:50:25.915Z,39.80
2019-02-07T22:52:56.930Z,42.25
2019-02-07T22:55:25.888Z,35.28
2019-02-07T22:57:55.064Z,41.08
2019-02-07T23:01:10.827Z,37.17
2019-02-07T23:03:59.911Z,44.35
2019-02-07T23:06:28.978Z,43.48
2019-02-07T23:08:58.259Z,44.85
2019-02-07T23:11:27.674Z,44.70
2019-02-07T23:13:56.489Z,41.42
2019-02-07T23:16:25.568Z,41.25
2019-02-07T23:18:54.985Z,41.73
2019-02-07T23:21:23.895Z,38.38
2019-02-07T23:23:52.666Z,40.23
2019-02-07T23:26:21.796Z,38.35
2019-02-07T23:28:50.895Z,34.25
2019-02-07T23:31:20.463Z,31.62
2019-02-07T23:33:49.254Z,33.48
2019-02-07T23:36:18.091Z,35.17
2019-02-07T23:38:47.447Z,36.68
2019-02-07T23:41:16.282Z,40.25
2019-02-07T23:43:46.357Z,38.73
2019-02-07T23:46:15.311Z,37.93
2019-02-07T23:48:44.433Z,33.55
2019-02-07T23:51:13.403Z,33.55
2019-02-07T23:53:42.467Z,34.27
2019-02-07T23:56:11.338Z,29.50
2019-02-07T23:58:40.157Z,29.30
